createdAt,value
2023-05-02T00:00:15.748Z,1012.262971
2023-05-02T00:05:16.293Z,1012.323369
2023-05-02T00:10:15.830Z,1012.363900
2023-05-02T00:15:17.092Z,1012.304189
2023-05-02T00:20:15.934Z,1012.124806
2023-05-02T00:25:15.745Z,1012.023297
2023-05-02T00:30:17.190Z,1012.043065
2023-05-02T00:35:15.854Z,1012.085357
2023-05-02T00:40:16.036Z,1012.026335
2023-05-02T00:45:16.494Z,1011.987826
2023-05-02T00:50:15.807Z,1012.009788
2023-05-02T00:55:16.221Z,1012.030729
2023-05-02T01:00:16.063Z,1011.971190
2023-05-02T01:05:17.110Z,1011.971333
2023-05-02T01:10:15.916Z,1011.990779
2023-05-02T01:15:16.140Z,1011.970739
2023-05-02T01:20:16.215Z,1011.830779
2023-05-02T01:25:16.611Z,1011.830598
2023-05-02T01:30:16.438Z,1011.790045
2023-05-02T01:35:16.055Z,1011.748450
2023-05-02T01:40:16.055Z,1011.548047
2023-05-02T01:45:16.758Z,1011.627859
2023-05-02T01:50:15.780Z,1011.567278
2023-05-02T01:55:16.579Z,1011.687237
2023-05-02T02:00:16.397Z,1011.686896
2023-05-02T02:05:16.330Z,1011.707405
2023-05-02T02:10:15.752Z,1011.706150
2023-05-02T02:15:16.000Z,1011.684859
2023-05-02T02:20:15.687Z,1011.702914
2023-05-02T02:25:15.828Z,1011.702744
2023-05-02T02:30:17.108Z,1011.681395
2023-05-02T02:35:15.926Z,1011.761906
2023-05-02T02:40:16.196Z,1011.759935
2023-05-02T02:45:16.094Z,1011.860825
2023-05-02T02:50:16.800Z,1011.861864
2023-05-02T02:55:16.725Z,1011.982710
2023-05-02T03:00:15.796Z,1012.041169
2023-05-02T03:05:16.675Z,1012.041216
2023-05-02T03:10:16.082Z,1012.020545
2023-05-02T03:15:16.083Z,1011.919149
2023-05-02T03:20:16.229Z,1011.877972
2023-05-02T03:25:16.460Z,1011.815826
2023-05-02T03:30:16.571Z,1011.695376
2023-05-02T03:35:16.123Z,1011.675003
2023-05-02T03:40:16.813Z,1011.714807
2023-05-02T03:45:15.877Z,1011.756680
2023-05-02T03:50:15.830Z,1011.818148
2023-05-02T03:55:15.930Z,1011.839336
2023-05-02T04:00:15.816Z,1011.840801
2023-05-02T04:05:17.164Z,1011.823744
2023-05-02T04:10:16.094Z,1011.684969
2023-05-02T04:15:17.361Z,1011.805700
2023-05-02T04:20:17.264Z,1011.806084
2023-05-02T04:25:16.258Z,1011.825952
2023-05-02T04:30:17.349Z,1011.844439
2023-05-02T04:35:16.231Z,1011.901881
2023-05-02T04:40:15.999Z,1011.884854
2023-05-02T04:45:16.158Z,1011.705643
2023-05-02T04:50:15.870Z,1011.661642
2023-05-02T04:55:16.425Z,1011.521235
2023-05-02T05:00:16.727Z,1011.519764
2023-05-02T05:05:15.933Z,1011.461027
2023-05-02T05:10:15.795Z,1011.462383
2023-05-02T05:15:15.980Z,1011.403554
2023-05-02T05:20:15.944Z,1011.281770
2023-05-02T05:25:16.631Z,1011.141805
2023-05-02T05:30:16.274Z,1011.121421
2023-05-02T05:35:15.758Z,1011.162499
2023-05-02T05:40:16.004Z,1011.162728
2023-05-02T05:45:15.742Z,1011.222912
2023-05-02T05:50:16.037Z,1011.421981
2023-05-02T05:55:15.868Z,1011.562594
2023-05-02T06:00:16.085Z,1011.742879
2023-05-02T06:05:16.135Z,1011.922742
2023-05-02T06:10:16.244Z,1012.023354
2023-05-02T06:15:16.145Z,1012.163679
2023-05-02T06:20:18.720Z,1012.303652
2023-05-02T06:25:16.057Z,1012.484234
2023-05-02T06:30:15.733Z,1012.605284
2023-05-02T06:35:15.757Z,1012.665613
2023-05-02T06:40:16.262Z,1012.525133
2023-05-02T06:45:15.736Z,1012.263919
2023-05-02T06:50:15.868Z,1011.785445
2023-05-02T06:55:15.964Z,1011.284325
2023-05-02T07:00:15.762Z,1010.943543
2023-05-02T07:05:17.038Z,1010.942522
2023-05-02T07:10:16.034Z,1011.459656
2023-05-02T07:15:16.018Z,1011.739992
2023-05-02T07:20:15.927Z,1011.918172
2023-05-02T07:25:16.364Z,1011.837732
2023-05-02T07:30:15.797Z,1011.823038
2023-05-02T07:35:15.768Z,1011.747436
2023-05-02T07:40:15.878Z,1011.907218
2023-05-02T07:45:16.324Z,1011.847978
2023-05-02T07:50:16.691Z,1011.610630
2023-05-02T07:55:16.315Z,1011.767468
2023-05-02T08:00:15.990Z,1011.965439
2023-05-02T08:05:16.275Z,1011.944832
2023-05-02T08:10:15.740Z,1011.983456
2023-05-02T08:15:16.093Z,1011.764355
2023-05-02T08:20:15.932Z,1011.687590
2023-05-02T08:25:16.332Z,1011.786168
2023-05-02T08:30:15.705Z,1012.264020
2023-05-02T08:35:16.521Z,1012.666933
2023-05-02T08:40:20.131Z,1012.645646
2023-05-02T08:45:16.867Z,1012.763930
2023-05-02T08:50:16.205Z,1013.084065
2023-05-02T08:55:15.781Z,1013.349945
2023-05-02T09:00:16.570Z,1013.470671
2023-05-02T09:05:16.230Z,1013.631011
2023-05-02T09:10:16.244Z,1013.710134
2023-05-02T09:15:18.226Z,1013.711226
2023-05-02T09:20:15.732Z,1013.732232
2023-05-02T09:25:16.131Z,1013.753056
2023-05-02T09:30:16.414Z,1013.430070
2023-05-02T09:35:15.902Z,1013.149530
2023-05-02T09:40:16.518Z,1012.769625
2023-05-02T09:45:16.345Z,1012.208053
2023-05-02T09:50:16.886Z,1011.190806
2023-05-02T09:55:16.065Z,1010.330552
2023-05-02T10:00:15.742Z,1009.650216
2023-05-02T10:05:16.418Z,1009.431071
2023-05-02T10:10:16.194Z,1008.971105
2023-05-02T10:15:15.811Z,1008.751525
2023-05-02T10:20:16.544Z,1009.209736
2023-05-02T10:25:15.766Z,1010.469336
2023-05-02T10:30:16.724Z,1010.609036
2023-05-02T10:35:17.205Z,1010.666745
2023-05-02T10:40:16.690Z,1010.805304
2023-05-02T10:45:15.817Z,1010.743924
2023-05-02T10:50:16.035Z,1010.883538
2023-05-02T10:55:16.026Z,1011.004247
2023-05-02T11:00:16.507Z,1011.004650
2023-05-02T11:05:16.144Z,1011.023455
2023-05-02T11:10:15.675Z,1011.024707
2023-05-02T11:15:15.850Z,1011.145281
2023-05-02T11:20:16.569Z,1011.104832
2023-05-02T11:25:16.481Z,1011.164980
2023-05-02T11:30:16.565Z,1011.206490
2023-05-02T11:35:16.123Z,1011.205059
2023-05-02T11:40:15.902Z,1011.082816
2023-05-02T11:45:16.035Z,1011.058371
2023-05-02T11:50:16.162Z,1011.056358
2023-05-02T11:55:16.056Z,1011.020204
2023-05-02T12:00:15.744Z,1010.902225
2023-05-02T12:05:16.245Z,1010.964912
2023-05-02T12:10:16.693Z,1010.925169
2023-05-02T12:15:16.447Z,1010.783785
2023-05-02T12:20:15.779Z,1010.740443
2023-05-02T12:25:15.782Z,1010.560039
2023-05-02T12:30:16.873Z,1010.400742
2023-05-02T12:35:16.598Z,1010.282896
2023-05-02T12:40:17.704Z,1010.166351
2023-05-02T12:45:16.417Z,1010.222634
2023-05-02T12:50:17.071Z,1010.401224
2023-05-02T12:55:15.797Z,1010.421736
2023-05-02T13:00:15.820Z,1010.482943
2023-05-02T13:05:16.899Z,1010.542944
2023-05-02T13:10:15.817Z,1010.525317
2023-05-02T13:15:16.427Z,1010.487636
2023-05-02T13:20:17.118Z,1010.445408
2023-05-02T13:25:15.910Z,1010.386690
2023-05-02T13:30:15.763Z,1010.327756
2023-05-02T13:35:15.968Z,1010.247336
2023-05-02T13:40:16.410Z,1010.263770
2023-05-02T13:45:15.801Z,1010.143657
2023-05-02T13:50:16.550Z,1010.046664
2023-05-02T13:55:15.718Z,1010.045722
2023-05-02T14:00:17.367Z,1009.887487
2023-05-02T14:05:16.732Z,1009.866352
2023-05-02T14:10:16.116Z,1009.884125
2023-05-02T14:15:16.319Z,1009.882209
2023-05-02T14:20:17.030Z,1009.878409
2023-05-02T14:25:15.876Z,1009.857176
2023-05-02T14:30:16.193Z,1009.874731
2023-05-02T14:35:16.035Z,1009.814865
2023-05-02T14:40:16.534Z,1009.818410
2023-05-02T14:45:16.351Z,1009.757123
2023-05-02T14:50:17.009Z,1009.775881
2023-05-02T14:55:15.759Z,1009.756871
2023-05-02T15:00:16.465Z,1009.716681
2023-05-02T15:05:15.900Z,1009.656680
2023-05-02T15:10:17.080Z,1009.654347
2023-05-02T15:15:16.625Z,1009.654225
2023-05-02T15:20:16.488Z,1009.613562
2023-05-02T15:25:16.081Z,1009.553680
2023-05-02T15:30:17.842Z,1009.573483
2023-05-02T15:35:15.820Z,1009.573344
2023-05-02T15:40:15.845Z,1009.548786
2023-05-02T15:45:16.102Z,1009.708642
2023-05-02T15:50:16.257Z,1009.792652
2023-05-02T15:55:15.801Z,1009.712893
2023-05-02T16:00:16.196Z,1009.613694
2023-05-02T16:05:15.708Z,1009.573998
2023-05-02T16:10:16.236Z,1009.593467
2023-05-02T16:15:16.694Z,1009.573855
2023-05-02T16:20:15.864Z,1009.474605
2023-05-02T16:25:16.501Z,1009.374453
2023-05-02T16:30:16.583Z,1009.374627
2023-05-02T16:35:15.699Z,1009.253816
2023-05-02T16:40:16.220Z,1009.172905
2023-05-02T16:45:16.253Z,1009.233135
2023-05-02T16:50:16.359Z,1009.272252
2023-05-02T16:55:15.773Z,1009.410775
2023-05-02T17:00:15.933Z,1009.394092
2023-05-02T17:05:15.900Z,1009.374291
2023-05-02T17:10:16.441Z,1009.254451
2023-05-02T17:15:16.606Z,1009.032589
2023-05-02T17:20:15.791Z,1008.991652
2023-05-02T17:25:16.144Z,1009.007845
2023-05-02T17:30:15.966Z,1009.006209
2023-05-02T17:35:15.904Z,1008.965179
2023-05-02T17:40:15.987Z,1009.021004
2023-05-02T17:45:15.956Z,1009.061757
2023-05-02T17:50:15.972Z,1009.000122
2023-05-02T17:55:18.331Z,1008.918639
2023-05-02T18:00:16.022Z,1008.771414
2023-05-02T18:05:15.991Z,1008.692728
2023-05-02T18:10:16.358Z,1008.711569
2023-05-02T18:15:15.829Z,1008.776600
2023-05-02T18:20:15.908Z,1008.693232
2023-05-02T18:25:15.836Z,1008.628095
2023-05-02T18:30:16.039Z,1008.566112
2023-05-02T18:35:16.384Z,1008.530111
2023-05-02T18:40:16.032Z,1008.625063
2023-05-02T18:45:15.780Z,1008.623613
2023-05-02T18:50:17.451Z,1008.561491
2023-05-02T18:55:15.952Z,1008.440655
2023-05-02T19:00:16.047Z,1008.361347
2023-05-02T19:05:15.783Z,1008.320486
2023-05-02T19:10:15.823Z,1008.342396
2023-05-02T19:15:16.824Z,1008.445773
2023-05-02T19:20:15.768Z,1008.403548
2023-05-02T19:25:16.617Z,1008.362614
2023-05-02T19:30:15.825Z,1008.300631
2023-05-02T19:35:16.738Z,1008.301351
2023-05-02T19:40:15.955Z,1008.280489
2023-05-02T19:45:15.819Z,1008.176065
2023-05-02T19:50:16.041Z,1008.134475
2023-05-02T19:55:17.003Z,1008.096307
2023-05-02T20:00:16.819Z,1008.080727
2023-05-02T20:05:16.246Z,1008.018372
2023-05-02T20:10:17.103Z,1007.997676
2023-05-02T20:15:17.710Z,1008.054330
2023-05-02T20:20:15.884Z,1008.039285
2023-05-02T20:25:15.969Z,1007.995794
2023-05-02T20:30:15.771Z,1007.994079
2023-05-02T20:35:16.240Z,1008.032044
2023-05-02T20:40:16.361Z,1007.889881
2023-05-02T20:45:16.376Z,1007.871520
2023-05-02T20:50:16.407Z,1007.955318
2023-05-02T20:55:16.066Z,1007.952996
2023-05-02T21:00:15.796Z,1007.869517
2023-05-02T21:05:15.973Z,1007.882816
2023-05-02T21:10:16.309Z,1007.707275
2023-05-02T21:15:16.360Z,1007.563881
2023-05-02T21:20:16.951Z,1007.743124
2023-05-02T21:25:16.431Z,1007.866262
2023-05-02T21:30:16.067Z,1007.824250
2023-05-02T21:35:16.505Z,1007.843170
2023-05-02T21:40:15.992Z,1007.797189
2023-05-02T21:45:15.867Z,1007.797456
2023-05-02T21:50:15.787Z,1007.954870
2023-05-02T21:55:15.855Z,1008.035403
2023-05-02T22:00:16.801Z,1008.060972
2023-05-02T22:05:16.194Z,1007.979939
2023-05-02T22:10:16.618Z,1007.956457
2023-05-02T22:15:16.242Z,1008.020939
2023-05-02T22:20:16.548Z,1008.083673
2023-05-02T22:25:15.863Z,1008.099897
2023-05-02T22:30:15.726Z,1008.037110
2023-05-02T22:35:16.574Z,1007.955333
2023-05-02T22:40:16.454Z,1007.838613
2023-05-02T22:45:15.751Z,1007.915559
2023-05-02T22:50:15.835Z,1007.919430
2023-05-02T22:55:15.770Z,1008.016170
2023-05-02T23:00:17.210Z,1008.013107
2023-05-02T23:05:16.416Z,1008.049255
2023-05-02T23:10:16.378Z,1007.971026
2023-05-02T23:15:16.307Z,1007.968469
2023-05-02T23:20:16.127Z,1007.940296
2023-05-02T23:25:16.312Z,1007.806174
2023-05-02T23:30:15.778Z,1007.885133
2023-05-02T23:35:15.755Z,1007.843681
2023-05-02T23:40:15.794Z,1007.784791
2023-05-02T23:45:16.230Z,1007.685980
2023-05-02T23:50:16.010Z,1007.684312
2023-05-02T23:55:15.983Z,1007.723805
